Time;durP1;ratioP1;P1;durP2;ratioP2;P2;SDS_P1;SDS_P2;PMS_P1;PMS_P2;Temp;Humidity;BMP_temperature;BMP_pressure;BME280_temperature;BME280_humidity;BME280_pressure;Samples;Min_cycle;Max_cycle;Signal;HPM_P1;HPM_P2
2023/10/15 00:00:18;;;;;;;0.20;0.20;;;8.10;99.90;;;;;;5065073;28;20072;-71
2023/10/15 00:02:51;;;;;;;0.10;0.10;;;8.10;99.90;;;;;;5051433;28;20064;-71
2023/10/15 00:05:19;;;;;;;0.20;0.20;;;8.00;99.90;;;;;;5042326;28;20052;-71
2023/10/15 00:07:49;;;;;;;0.13;0.13;;;8.10;99.90;;;;;;5048755;28;20052;-71
2023/10/15 00:10:16;;;;;;;0.20;0.20;;;8.10;99.90;;;;;;5043469;28;20093;-71
2023/10/15 00:12:50;;;;;;;0.20;0.20;;;8.00;99.90;;;;;;5046973;28;20043;-71
2023/10/15 00:15:20;;;;;;;0.20;0.20;;;8.00;99.90;;;;;;5042094;28;20090;-71
2023/10/15 00:17:47;;;;;;;0.20;0.20;;;8.00;99.90;;;;;;5049402;28;20170;-71
2023/10/15 00:20:16;;;;;;;0.10;0.10;;;8.00;99.90;;;;;;5067850;28;20045;-71
2023/10/15 00:22:43;;;;;;;0.20;0.20;;;7.90;99.90;;;;;;5052737;28;20441;-71
2023/10/15 00:25:12;;;;;;;0.13;0.13;;;7.90;99.90;;;;;;5063611;28;20044;-70
2023/10/15 00:27:38;;;;;;;0.10;0.10;;;7.90;99.90;;;;;;5053093;28;20637;-71
2023/10/15 00:30:12;;;;;;;0.10;0.10;;;7.90;99.90;;;;;;5052343;28;20040;-71
2023/10/15 00:32:43;;;;;;;0.10;0.10;;;7.90;99.90;;;;;;5050845;28;20507;-71
2023/10/15 00:35:10;;;;;;;0.20;0.20;;;7.90;99.90;;;;;;5050345;28;20055;-71
2023/10/15 00:37:40;;;;;;;0.10;0.10;;;7.90;99.90;;;;;;5051826;28;20055;-71
2023/10/15 00:40:16;;;;;;;0.20;0.20;;;7.90;99.90;;;;;;5053436;28;20123;-71
2023/10/15 00:42:44;;;;;;;0.20;0.20;;;7.90;99.90;;;;;;5045278;28;20122;-71
2023/10/15 00:45:11;;;;;;;0.10;0.10;;;7.80;99.90;;;;;;5052521;28;20058;-71
2023/10/15 00:47:37;;;;;;;0.10;0.10;;;7.80;99.90;;;;;;5068694;28;20055;-72
2023/10/15 00:50:08;;;;;;;0.10;0.10;;;7.80;99.90;;;;;;5042279;28;20102;-71
2023/10/15 00:52:38;;;;;;;0.10;0.10;;;7.80;99.90;;;;;;5048362;28;20045;-71
2023/10/15 00:55:05;;;;;;;0.10;0.10;;;7.80;99.90;;;;;;5069573;28;20051;-71
2023/10/15 00:57:43;;;;;;;0.10;0.10;;;7.70;99.90;;;;;;5048053;28;20132;-71
2023/10/15 01:00:39;;;;;;;0.10;0.10;;;7.70;99.90;;;;;;5056653;28;20059;-71
2023/10/15 01:03:02;;;;;;;0.10;0.10;;;7.70;99.90;;;;;;5054019;28;20041;-71
2023/10/15 01:05:33;;;;;;;0.10;0.10;;;7.70;99.90;;;;;;5050462;28;20485;-71
2023/10/15 01:08:03;;;;;;;0.10;0.10;;;7.70;99.90;;;;;;5051471;28;20059;-71
2023/10/15 01:10:36;;;;;;;0.10;0.10;;;7.70;99.90;;;;;;5069233;28;20045;-71
2023/10/15 01:13:21;;;;;;;0.20;0.20;;;7.70;99.90;;;;;;5046630;28;20041;-71
2023/10/15 01:15:52;;;;;;;0.20;0.20;;;7.70;99.90;;;;;;5048683;28;20052;-71
2023/10/15 01:18:17;;;;;;;0.20;0.20;;;7.70;99.90;;;;;;5065815;28;20123;-71
2023/10/15 01:20:43;;;;;;;0.10;0.10;;;7.80;99.90;;;;;;5049389;28;20128;-72
2023/10/15 01:23:32;;;;;;;0.10;0.10;;;7.80;99.90;;;;;;5051514;28;20117;-71
2023/10/15 01:26:00;;;;;;;0.20;0.20;;;7.90;99.90;;;;;;5051102;28;20078;-71
2023/10/15 01:28:38;;;;;;;0.20;0.20;;;7.90;99.90;;;;;;5068864;28;20037;-71
2023/10/15 01:31:07;;;;;;;0.10;0.10;;;7.90;99.90;;;;;;5052737;28;20040;-71
2023/10/15 01:33:45;;;;;;;0.10;0.10;;;7.90;99.90;;;;;;5048260;28;20045;-71
2023/10/15 01:36:16;;;;;;;0.10;0.10;;;8.00;99.90;;;;;;5049969;28;20051;-71
2023/10/15 01:38:44;;;;;;;0.20;0.20;;;8.00;99.90;;;;;;5043669;28;20128;-71
2023/10/15 01:41:14;;;;;;;0.10;0.10;;;8.00;99.90;;;;;;5051027;28;20052;-71
2023/10/15 01:43:41;;;;;;;0.15;0.15;;;8.00;99.90;;;;;;5046531;28;20086;-71
2023/10/15 01:46:10;;;;;;;0.10;0.10;;;8.00;99.90;;;;;;5048069;28;20049;-71
2023/10/15 01:48:39;;;;;;;0.10;0.10;;;8.00;99.90;;;;;;5065013;28;20058;-71
2023/10/15 01:51:06;;;;;;;0.20;0.20;;;8.00;99.90;;;;;;5042337;28;20040;-71
2023/10/15 01:53:34;;;;;;;0.20;0.20;;;8.00;99.90;;;;;;5048284;28;20040;-71
2023/10/15 01:56:03;;;;;;;0.10;0.10;;;8.00;99.90;;;;;;5032132;28;20041;-71
2023/10/15 01:58:32;;;;;;;0.10;0.10;;;8.00;99.90;;;;;;5065443;28;20050;-71
2023/10/15 02:01:20;;;;;;;0.20;0.20;;;8.00;99.90;;;;;;5050090;28;20051;-71
2023/10/15 02:03:47;;;;;;;0.10;0.10;;;7.90;99.90;;;;;;5048809;28;20516;-71
2023/10/15 02:06:16;;;;;;;0.10;0.10;;;9.10;99.90;;;;;;5048592;28;20476;-71
2023/10/15 02:08:45;;;;;;;0.20;0.20;;;7.90;99.90;;;;;;5048159;28;20571;-71
2023/10/15 02:11:16;;;;;;;0.10;0.10;;;7.80;99.90;;;;;;5049796;28;20484;-71
2023/10/15 02:13:44;;;;;;;0.10;0.10;;;7.80;99.90;;;;;;5057487;28;20056;-71
2023/10/15 02:16:15;;;;;;;0.20;0.20;;;7.80;99.90;;;;;;5058531;28;20041;-71
2023/10/15 02:18:44;;;;;;;0.10;0.10;;;7.80;99.90;;;;;;5043087;28;20119;-71
2023/10/15 02:21:11;;;;;;;0.10;0.10;;;7.80;99.90;;;;;;5052564;28;20098;-71
2023/10/15 02:23:48;;;;;;;0.10;0.10;;;7.70;99.90;;;;;;5047528;28;20094;-71
2023/10/15 02:26:18;;;;;;;0.20;0.20;;;7.70;99.90;;;;;;5047017;28;20048;-71
2023/10/15 02:28:44;;;;;;;0.15;0.15;;;7.70;99.90;;;;;;5049560;28;20094;-71
2023/10/15 02:33:36;;;;;;;0.10;0.10;;;7.60;99.90;;;;;;5065723;28;20052;-71
2023/10/15 02:36:07;;;;;;;0.10;0.10;;;7.60;99.90;;;;;;5057766;28;20045;-71
2023/10/15 02:38:38;;;;;;;0.15;0.15;;;7.60;99.90;;;;;;5036018;28;20084;-71
2023/10/15 02:41:05;;;;;;;0.15;0.15;;;7.60;99.90;;;;;;5051423;28;20040;-71
2023/10/15 02:43:32;;;;;;;0.20;0.20;;;7.60;99.90;;;;;;5044544;28;20079;-71
2023/10/15 02:46:00;;;;;;;0.10;0.10;;;7.50;99.90;;;;;;5068504;28;20053;-71
2023/10/15 02:48:31;;;;;;;0.10;0.10;;;7.50;99.90;;;;;;5043844;28;20053;-71
2023/10/15 02:51:00;;;;;;;0.10;0.10;;;7.50;99.90;;;;;;5049456;28;20059;-71
2023/10/15 02:53:38;;;;;;;0.10;0.10;;;7.50;99.90;;;;;;5048964;28;20063;-71
2023/10/15 02:56:13;;;;;;;0.20;0.20;;;7.50;99.90;;;;;;5054602;28;20063;-71
2023/10/15 02:58:40;;;;;;;0.10;0.10;;;7.50;99.90;;;;;;5051620;28;20044;-71
2023/10/15 03:01:23;;;;;;;0.17;0.17;;;7.50;99.90;;;;;;5054580;28;20040;-71
2023/10/15 03:03:51;;;;;;;0.20;0.20;;;7.50;99.90;;;;;;5070652;28;20082;-71
2023/10/15 03:06:31;;;;;;;0.10;0.10;;;7.50;99.90;;;;;;5049949;28;20082;-71
2023/10/15 03:08:58;;;;;;;0.20;0.20;;;7.50;99.90;;;;;;5066335;28;20127;-71
2023/10/15 03:11:25;;;;;;;0.10;0.10;;;7.50;99.90;;;;;;5051499;28;20049;-71
2023/10/15 03:14:00;;;;;;;0.10;0.10;;;7.50;99.90;;;;;;5051362;28;20464;-71
2023/10/15 03:16:31;;;;;;;0.10;0.10;;;7.40;99.90;;;;;;5051765;28;20484;-71
2023/10/15 03:18:57;;;;;;;0.20;0.20;;;7.40;99.90;;;;;;5047189;28;20075;-72
2023/10/15 03:21:26;;;;;;;0.10;0.10;;;7.40;99.90;;;;;;5054168;28;20403;-71
2023/10/15 03:23:56;;;;;;;0.20;0.20;;;7.40;99.90;;;;;;5069654;28;20480;-71
2023/10/15 03:26:23;;;;;;;0.20;0.20;;;7.30;99.90;;;;;;5055163;28;20049;-71
2023/10/15 03:28:51;;;;;;;0.10;0.10;;;7.30;99.90;;;;;;5071490;28;20491;-72
2023/10/15 03:31:24;;;;;;;0.10;0.10;;;7.30;99.90;;;;;;5071540;28;20090;-71
2023/10/15 03:36:42;;;;;;;0.10;0.10;;;7.30;99.90;;;;;;5047512;28;20757;-72
2023/10/15 03:39:15;;;;;;;0.20;0.20;;;7.30;99.90;;;;;;5052827;28;20053;-72
2023/10/15 03:41:44;;;;;;;0.20;0.20;;;7.30;99.90;;;;;;5048388;28;20123;-71
2023/10/15 03:44:11;;;;;;;0.10;0.10;;;7.20;99.90;;;;;;5051080;28;20395;-72
2023/10/15 03:46:37;;;;;;;0.10;0.10;;;7.40;99.90;;;;;;5050622;28;20548;-72
2023/10/15 03:49:08;;;;;;;0.10;0.10;;;7.20;99.90;;;;;;5046618;28;20059;-72
2023/10/15 03:51:40;;;;;;;0.10;0.10;;;7.20;99.90;;;;;;5053631;28;20048;-71
2023/10/15 03:54:07;;;;;;;0.17;0.17;;;7.10;99.90;;;;;;5053150;28;20842;-72
2023/10/15 03:56:34;;;;;;;0.10;0.10;;;7.10;99.90;;;;;;5071107;28;20052;-72
2023/10/15 03:59:01;;;;;;;0.10;0.10;;;7.20;99.90;;;;;;5051739;28;20098;-72
2023/10/15 04:01:30;;;;;;;0.10;0.10;;;7.10;99.90;;;;;;5053944;28;20044;-72
2023/10/15 04:03:55;;;;;;;0.10;0.10;;;7.20;99.90;;;;;;5069065;28;20059;-72
2023/10/15 04:06:21;;;;;;;0.10;0.10;;;7.20;99.90;;;;;;5051159;28;20045;-72
2023/10/15 04:11:30;;;;;;;0.10;0.10;;;7.20;99.90;;;;;;5063725;28;20504;-72
2023/10/15 04:14:13;;;;;;;0.10;0.10;;;7.20;99.90;;;;;;5047207;28;20063;-71
2023/10/15 04:16:40;;;;;;;0.20;0.20;;;7.20;99.90;;;;;;5053627;28;20048;-71
2023/10/15 04:19:08;;;;;;;0.10;0.10;;;7.30;99.90;;;;;;5050198;28;20056;-71
2023/10/15 04:21:38;;;;;;;0.10;0.10;;;7.30;99.90;;;;;;5050359;28;20488;-71
2023/10/15 04:24:08;;;;;;;0.20;0.20;;;7.30;99.90;;;;;;5067706;28;20395;-71
2023/10/15 04:26:40;;;;;;;0.20;0.20;;;7.30;99.90;;;;;;5051152;28;20044;-71
2023/10/15 04:29:16;;;;;;;0.20;0.20;;;7.30;99.90;;;;;;5051209;28;20052;-71
2023/10/15 04:32:08;;;;;;;0.20;0.20;;;7.30;99.90;;;;;;5049736;28;20102;-71
2023/10/15 04:34:36;;;;;;;0.10;0.10;;;7.30;99.90;;;;;;5061477;28;20573;-71
2023/10/15 04:37:16;;;;;;;0.10;0.10;;;7.20;99.90;;;;;;5052037;28;20050;-72
2023/10/15 04:39:55;;;;;;;0.10;0.10;;;7.20;99.90;;;;;;5032904;28;20412;-71
2023/10/15 04:42:35;;;;;;;0.10;0.10;;;7.10;99.90;;;;;;5037623;28;20404;-71
2023/10/15 04:45:01;;;;;;;0.10;0.10;;;7.20;99.90;;;;;;5053171;28;20076;-71
2023/10/15 04:47:38;;;;;;;0.10;0.10;;;7.20;99.90;;;;;;5049026;28;20122;-72
2023/10/15 04:50:14;;;;;;;0.10;0.10;;;7.10;99.90;;;;;;5063454;28;20174;-72
2023/10/15 04:52:41;;;;;;;0.10;0.10;;;7.10;99.90;;;;;;5048646;28;20663;-71
2023/10/15 04:55:08;;;;;;;0.20;0.20;;;7.10;99.90;;;;;;5032654;28;20049;-71
2023/10/15 04:57:34;;;;;;;0.15;0.15;;;7.10;99.90;;;;;;5049713;28;20142;-71
2023/10/15 04:59:59;;;;;;;0.10;0.10;;;7.10;99.90;;;;;;5051949;28;20044;-71
2023/10/15 05:02:25;;;;;;;0.10;0.10;;;7.00;99.90;;;;;;5050347;28;20166;-71
2023/10/15 05:04:52;;;;;;;0.20;0.20;;;7.00;99.90;;;;;;5067074;28;20069;-71
2023/10/15 05:07:18;;;;;;;0.20;0.20;;;7.00;99.90;;;;;;5051617;28;20044;-71
2023/10/15 05:09:44;;;;;;;0.10;0.10;;;7.10;99.90;;;;;;5050813;28;20123;-71
2023/10/15 05:12:12;;;;;;;0.13;0.13;;;7.00;99.90;;;;;;5045365;28;20048;-71
2023/10/15 05:14:38;;;;;;;0.10;0.10;;;7.00;99.90;;;;;;5040517;28;20064;-71
2023/10/15 05:17:04;;;;;;;0.20;0.20;;;7.00;99.90;;;;;;5044954;28;20127;-71
2023/10/15 05:19:30;;;;;;;0.10;0.10;;;7.00;99.90;;;;;;5069323;28;20044;-71
2023/10/15 05:21:56;;;;;;;0.20;0.20;;;7.00;99.90;;;;;;5037833;28;20546;-71
2023/10/15 05:24:21;;;;;;;0.20;0.20;;;7.00;99.90;;;;;;5047243;28;20048;-71
2023/10/15 05:26:48;;;;;;;0.20;0.20;;;7.00;99.90;;;;;;5047946;28;20479;-71
2023/10/15 05:29:18;;;;;;;0.20;0.20;;;7.00;99.90;;;;;;5045071;28;20041;-72
2023/10/15 05:31:43;;;;;;;0.20;0.20;;;7.00;99.90;;;;;;5048489;28;20037;-71
2023/10/15 05:34:09;;;;;;;0.10;0.10;;;7.10;99.90;;;;;;5044122;28;20033;-71
2023/10/15 05:36:36;;;;;;;0.10;0.10;;;7.00;99.90;;;;;;5041053;28;20821;-71
2023/10/15 05:39:09;;;;;;;0.20;0.20;;;7.00;99.90;;;;;;5050741;28;20051;-71
2023/10/15 05:41:37;;;;;;;0.20;0.20;;;7.00;99.90;;;;;;5068001;28;20161;-71
2023/10/15 05:44:02;;;;;;;0.20;0.20;;;7.10;99.90;;;;;;5046580;28;20128;-71
2023/10/15 05:46:28;;;;;;;0.20;0.20;;;7.10;99.90;;;;;;5032095;28;20129;-71
2023/10/15 05:48:54;;;;;;;0.20;0.20;;;7.10;99.90;;;;;;5039044;28;20102;-72
2023/10/15 05:51:20;;;;;;;0.10;0.10;;;7.10;99.90;;;;;;5032038;28;20045;-71
2023/10/15 05:53:46;;;;;;;0.20;0.20;;;7.10;99.90;;;;;;5046468;28;20110;-71
2023/10/15 05:56:12;;;;;;;0.17;0.17;;;7.10;99.90;;;;;;5069801;28;20045;-71
2023/10/15 05:58:38;;;;;;;0.10;0.10;;;7.20;99.90;;;;;;5051246;28;20045;-72
2023/10/15 06:01:03;;;;;;;0.10;0.10;;;7.10;99.90;;;;;;5050769;28;20028;-71
2023/10/15 06:03:33;;;;;;;0.15;0.15;;;7.10;99.90;;;;;;5043250;28;20530;-71
2023/10/15 06:05:59;;;;;;;0.10;0.10;;;7.20;99.90;;;;;;5051982;28;20448;-72
2023/10/15 06:08:25;;;;;;;0.10;0.10;;;7.10;99.90;;;;;;5068618;28;20071;-71
2023/10/15 06:10:51;;;;;;;0.10;0.10;;;7.10;99.90;;;;;;5071216;28;20529;-71
2023/10/15 06:13:17;;;;;;;0.10;0.10;;;7.10;99.90;;;;;;5050653;28;20484;-71
2023/10/15 06:15:42;;;;;;;0.20;0.20;;;7.10;99.90;;;;;;5035152;28;20045;-71
2023/10/15 06:18:11;;;;;;;0.20;0.20;;;7.20;99.90;;;;;;5039689;28;20052;-71
2023/10/15 06:20:36;;;;;;;0.20;0.20;;;7.20;99.90;;;;;;5038516;28;20056;-71
2023/10/15 06:23:07;;;;;;;0.10;0.10;;;7.20;99.90;;;;;;5053437;28;20055;-71
2023/10/15 06:25:35;;;;;;;0.20;0.20;;;7.30;99.90;;;;;;5051932;28;20052;-72
2023/10/15 06:28:01;;;;;;;0.17;0.17;;;7.20;99.90;;;;;;5038816;28;20515;-71
2023/10/15 06:30:27;;;;;;;0.20;0.20;;;7.20;99.90;;;;;;5072093;28;20075;-71
2023/10/15 06:32:53;;;;;;;0.13;0.13;;;7.10;99.90;;;;;;5068273;28;20358;-72
2023/10/15 06:35:20;;;;;;;0.10;0.10;;;7.00;99.90;;;;;;5048778;28;20127;-71
2023/10/15 06:37:57;;;;;;;0.10;0.10;;;7.10;99.90;;;;;;5070324;28;20044;-71
2023/10/15 06:40:24;;;;;;;0.10;0.10;;;7.00;99.90;;;;;;5035296;28;20052;-71
2023/10/15 06:43:00;;;;;;;0.10;0.10;;;7.00;99.90;;;;;;5070091;28;20051;-71
2023/10/15 06:45:27;;;;;;;0.20;0.20;;;7.00;99.90;;;;;;5054351;28;20060;-71
2023/10/15 06:47:53;;;;;;;0.10;0.10;;;7.00;99.90;;;;;;5048640;28;20044;-71
2023/10/15 06:50:19;;;;;;;0.10;0.10;;;7.00;99.90;;;;;;5053122;28;20045;-71
2023/10/15 06:52:46;;;;;;;0.20;0.20;;;7.00;99.90;;;;;;5037283;28;20120;-71
2023/10/15 06:55:13;;;;;;;0.20;0.20;;;7.00;99.90;;;;;;5035332;28;20051;-72
2023/10/15 06:57:39;;;;;;;0.20;0.20;;;7.00;99.90;;;;;;5040186;28;20106;-71
2023/10/15 07:00:09;;;;;;;0.10;0.10;;;7.00;99.90;;;;;;5054863;28;20071;-71
2023/10/15 07:02:35;;;;;;;0.15;0.15;;;7.00;99.90;;;;;;5069853;28;20068;-71
2023/10/15 07:05:04;;;;;;;0.10;0.10;;;7.10;99.90;;;;;;5045943;28;20078;-71
2023/10/15 07:07:32;;;;;;;0.20;0.20;;;7.10;99.90;;;;;;5052691;28;20041;-71
2023/10/15 07:10:01;;;;;;;0.10;0.10;;;7.30;99.90;;;;;;5040294;28;20049;-71
2023/10/15 07:12:26;;;;;;;0.20;0.20;;;7.20;99.90;;;;;;5045622;28;20048;-72
2023/10/15 07:14:52;;;;;;;0.20;0.20;;;7.20;99.90;;;;;;5039050;28;20660;-72
2023/10/15 07:17:18;;;;;;;0.10;0.10;;;7.10;99.90;;;;;;5039659;28;20041;-71
2023/10/15 07:19:43;;;;;;;0.10;0.10;;;7.10;99.90;;;;;;5057843;28;20048;-71
2023/10/15 07:22:09;;;;;;;0.10;0.10;;;7.10;99.90;;;;;;5054078;28;20041;-71
2023/10/15 07:24:35;;;;;;;0.20;0.20;;;7.10;99.90;;;;;;5054209;28;20058;-71
2023/10/15 07:27:04;;;;;;;0.10;0.10;;;7.10;99.90;;;;;;5057519;28;20045;-71
2023/10/15 07:29:30;;;;;;;0.10;0.10;;;7.10;99.90;;;;;;5070513;28;20041;-72
2023/10/15 07:31:56;;;;;;;0.20;0.20;;;7.10;99.90;;;;;;5050526;28;20487;-71
2023/10/15 07:34:26;;;;;;;0.20;0.20;;;7.10;99.90;;;;;;5052031;28;20075;-72
2023/10/15 07:36:55;;;;;;;0.20;0.20;;;7.10;99.90;;;;;;5049242;28;20041;-72
2023/10/15 07:39:23;;;;;;;0.10;0.10;;;7.10;99.90;;;;;;5051560;28;20040;-72
2023/10/15 07:41:48;;;;;;;0.17;0.17;;;7.20;99.90;;;;;;5046552;28;20389;-72
2023/10/15 07:44:15;;;;;;;0.10;0.10;;;7.10;99.90;;;;;;5052574;28;20579;-72
2023/10/15 07:46:42;;;;;;;0.10;0.10;;;7.20;99.90;;;;;;5066487;28;20047;-72
2023/10/15 07:49:09;;;;;;;0.10;0.10;;;7.20;99.90;;;;;;5041989;28;20048;-72
2023/10/15 07:51:35;;;;;;;0.20;0.20;;;7.20;99.90;;;;;;5049642;28;20523;-71
2023/10/15 07:54:03;;;;;;;0.20;0.20;;;7.20;99.90;;;;;;5039366;28;20171;-72
2023/10/15 07:56:31;;;;;;;0.10;0.10;;;7.20;99.90;;;;;;5044847;28;20529;-71
2023/10/15 07:58:57;;;;;;;0.20;0.20;;;7.20;99.90;;;;;;5051524;28;20059;-72
2023/10/15 08:01:25;;;;;;;0.10;0.10;;;7.20;99.90;;;;;;5045191;28;20049;-71
2023/10/15 08:03:51;;;;;;;0.13;0.13;;;7.30;99.90;;;;;;5045343;28;20060;-71
2023/10/15 08:06:16;;;;;;;0.17;0.17;;;7.40;99.90;;;;;;5048889;28;20049;-72
2023/10/15 08:08:45;;;;;;;0.20;0.20;;;7.40;99.90;;;;;;5055026;28;20048;-72
2023/10/15 08:11:11;;;;;;;0.17;0.17;;;7.40;99.90;;;;;;5048986;28;20489;-72
2023/10/15 08:13:37;;;;;;;0.10;0.10;;;7.50;99.90;;;;;;5051972;28;20098;-72
2023/10/15 08:16:02;;;;;;;0.10;0.10;;;7.50;99.90;;;;;;5050431;28;20044;-72
2023/10/15 08:18:28;;;;;;;0.13;0.13;;;7.50;99.90;;;;;;5044007;28;20378;-73
2023/10/15 08:20:54;;;;;;;0.20;0.20;;;7.50;99.90;;;;;;5044770;28;20041;-73
2023/10/15 08:23:20;;;;;;;0.20;0.20;;;7.50;99.90;;;;;;5049530;28;20048;-73
2023/10/15 08:25:47;;;;;;;0.10;0.10;;;7.60;99.90;;;;;;5035722;28;20053;-73
2023/10/15 08:28:12;;;;;;;0.20;0.20;;;7.60;99.90;;;;;;5050776;28;20044;-73
2023/10/15 08:30:41;;;;;;;0.10;0.10;;;7.70;99.90;;;;;;5045167;28;20040;-73
2023/10/15 08:33:11;;;;;;;0.10;0.10;;;7.70;99.90;;;;;;5047305;28;20129;-71
2023/10/15 08:35:38;;;;;;;0.10;0.10;;;7.90;99.90;;;;;;5039484;28;20389;-72
2023/10/15 08:38:07;;;;;;;0.20;0.20;;;8.00;99.90;;;;;;5046277;28;20048;-72
2023/10/15 08:40:37;;;;;;;0.20;0.20;;;7.90;99.90;;;;;;5052544;28;20090;-72
2023/10/15 08:43:23;;;;;;;0.10;0.10;;;8.00;99.90;;;;;;5052260;28;20033;-72
2023/10/15 08:45:51;;;;;;;0.10;0.10;;;7.80;99.90;;;;;;5064234;28;20036;-71
2023/10/15 08:48:18;;;;;;;0.10;0.10;;;7.70;99.90;;;;;;5047005;28;20060;-72
2023/10/15 08:50:45;;;;;;;0.10;0.10;;;7.60;99.90;;;;;;5051809;28;20041;-72
2023/10/15 08:53:13;;;;;;;0.10;0.10;;;7.50;99.90;;;;;;5032524;28;20131;-72
2023/10/15 08:55:41;;;;;;;0.10;0.10;;;7.40;99.90;;;;;;5060960;28;20399;-72
2023/10/15 08:58:09;;;;;;;0.10;0.10;;;7.30;99.90;;;;;;5044205;28;20052;-72
2023/10/15 09:00:39;;;;;;;0.10;0.10;;;7.30;99.90;;;;;;5043513;28;20049;-72
2023/10/15 09:03:05;;;;;;;0.20;0.20;;;7.80;99.90;;;;;;5048726;28;20122;-72
2023/10/15 09:05:37;;;;;;;0.10;0.10;;;7.30;99.90;;;;;;5068636;28;20059;-73
2023/10/15 09:08:07;;;;;;;0.10;0.10;;;8.60;99.90;;;;;;5047840;28;20102;-72
2023/10/15 09:10:35;;;;;;;0.10;0.10;;;7.20;99.90;;;;;;5049863;28;20050;-72
2023/10/15 09:13:01;;;;;;;0.10;0.10;;;7.30;99.90;;;;;;5039257;28;20055;-71
2023/10/15 09:15:29;;;;;;;0.10;0.10;;;7.30;99.90;;;;;;5049356;28;20049;-73
2023/10/15 09:17:57;;;;;;;0.10;0.10;;;7.40;99.90;;;;;;5056829;28;20143;-73
2023/10/15 09:20:27;;;;;;;0.15;0.15;;;7.40;99.90;;;;;;5041476;28;20106;-73
2023/10/15 09:22:54;;;;;;;;;;;7.40;99.90;;;;;;5048241;28;20089;-73
2023/10/15 09:25:21;;;;;;;0.10;0.10;;;7.50;99.90;;;;;;5051770;28;20010;-72
2023/10/15 09:27:47;;;;;;;0.13;0.13;;;7.60;99.90;;;;;;5052652;28;20052;-73
2023/10/15 09:30:19;;;;;;;0.10;0.10;;;7.70;99.90;;;;;;5063243;28;20048;-72
2023/10/15 09:32:48;;;;;;;0.10;0.10;;;7.80;99.90;;;;;;5041544;28;20374;-73
2023/10/15 09:35:14;;;;;;;0.10;0.10;;;7.90;99.90;;;;;;5048393;28;20045;-72
2023/10/15 09:37:40;;;;;;;0.10;0.10;;;8.10;99.90;;;;;;5040091;28;20074;-72
2023/10/15 09:40:09;;;;;;;0.20;0.20;;;8.10;99.90;;;;;;5062048;28;20041;-72
2023/10/15 09:42:38;;;;;;;0.10;0.10;;;8.20;99.90;;;;;;5040190;28;20067;-73
2023/10/15 09:45:07;;;;;;;0.10;0.10;;;8.30;99.90;;;;;;5038918;28;20055;-72
2023/10/15 09:47:39;;;;;;;0.20;0.20;;;8.50;99.90;;;;;;5048170;28;20036;-72
2023/10/15 09:50:09;;;;;;;0.10;0.10;;;8.50;99.90;;;;;;5049146;28;20044;-73
2023/10/15 09:52:37;;;;;;;0.13;0.13;;;8.60;99.90;;;;;;5045295;28;20053;-74
2023/10/15 09:55:11;;;;;;;0.20;0.20;;;8.70;99.90;;;;;;5051425;28;20045;-74
2023/10/15 09:57:38;;;;;;;0.10;0.10;;;8.80;99.90;;;;;;5051220;28;20083;-74
2023/10/15 10:00:10;;;;;;;0.10;0.10;;;8.90;99.90;;;;;;5048287;28;20041;-74
2023/10/15 10:02:46;;;;;;;0.10;0.10;;;9.00;99.90;;;;;;5035217;28;20051;-74
2023/10/15 10:05:45;;;;;;;0.10;0.10;;;9.10;99.90;;;;;;5039139;28;20045;-72
2023/10/15 10:08:31;;;;;;;0.10;0.10;;;9.20;99.90;;;;;;5062360;28;20041;-72
2023/10/15 10:11:08;;;;;;;0.10;0.10;;;9.40;99.90;;;;;;5067700;28;20101;-72
2023/10/15 10:13:53;;;;;;;0.10;0.10;;;9.60;99.90;;;;;;5068219;28;20051;-72
2023/10/15 10:16:27;;;;;;;0.20;0.20;;;9.80;99.90;;;;;;5067864;28;20508;-72
2023/10/15 10:18:53;;;;;;;0.10;0.10;;;10.00;99.90;;;;;;5042283;28;20048;-72
2023/10/15 10:21:19;;;;;;;0.15;0.15;;;10.00;99.90;;;;;;5062466;28;20555;-72
2023/10/15 10:23:49;;;;;;;0.20;0.20;;;10.00;99.90;;;;;;5037609;28;20048;-72
2023/10/15 10:26:17;;;;;;;0.10;0.10;;;10.00;99.90;;;;;;5059204;28;20129;-72
2023/10/15 10:28:44;;;;;;;0.10;0.10;;;9.70;99.90;;;;;;5045609;28;20055;-72
2023/10/15 10:31:11;;;;;;;0.10;0.10;;;9.40;99.90;;;;;;5066374;28;20044;-72
2023/10/15 10:33:46;;;;;;;0.17;0.17;;;9.30;99.90;;;;;;5049261;28;20044;-72
2023/10/15 10:36:17;;;;;;;0.10;0.10;;;9.20;99.90;;;;;;5046484;28;20099;-72
2023/10/15 10:38:43;;;;;;;;;;;9.10;99.90;;;;;;5044149;28;20036;-72
2023/10/15 10:41:13;;;;;;;0.10;0.10;;;8.90;99.90;;;;;;5051868;28;19962;-72
2023/10/15 10:43:42;;;;;;;0.10;0.10;;;9.00;99.90;;;;;;5047320;28;20045;-71
2023/10/15 10:46:23;;;;;;;0.10;0.10;;;9.10;99.90;;;;;;5046198;28;20052;-72
2023/10/15 10:49:06;;;;;;;0.10;0.10;;;9.30;99.90;;;;;;5018330;28;20584;-72
2023/10/15 10:51:35;;;;;;;0.20;0.20;;;9.30;99.90;;;;;;5030890;28;20095;-72
2023/10/15 10:54:05;;;;;;;0.10;0.10;;;9.40;99.90;;;;;;5030216;28;20073;-72
2023/10/15 10:56:43;;;;;;;0.10;0.10;;;9.30;99.90;;;;;;5046758;28;20109;-72
2023/10/15 10:59:13;;;;;;;0.10;0.10;;;9.30;99.90;;;;;;5053811;28;20048;-72
2023/10/15 11:01:42;;;;;;;0.10;0.10;;;9.30;99.90;;;;;;5071472;28;20048;-72
2023/10/15 11:04:15;;;;;;;0.10;0.10;;;9.30;99.90;;;;;;5049638;28;20729;-72
2023/10/15 11:06:48;;;;;;;0.10;0.10;;;9.40;99.90;;;;;;5039204;28;20048;-72
2023/10/15 11:09:15;;;;;;;0.10;0.10;;;9.60;99.90;;;;;;5048744;28;20408;-72
2023/10/15 11:11:48;;;;;;;0.10;0.10;;;9.80;99.90;;;;;;5046216;28;20033;-72
2023/10/15 11:14:15;;;;;;;0.10;0.10;;;9.90;99.90;;;;;;5044529;28;20148;-71
2023/10/15 11:16:45;;;;;;;0.20;0.20;;;10.00;99.90;;;;;;5041929;28;20042;-72
2023/10/15 11:19:19;;;;;;;0.10;0.10;;;9.90;99.90;;;;;;5044525;28;20073;-72
2023/10/15 11:21:48;;;;;;;0.13;0.13;;;10.10;99.90;;;;;;5039066;28;20059;-72
2023/10/15 11:24:15;;;;;;;0.10;0.10;;;10.20;99.90;;;;;;5044171;28;20072;-71
2023/10/15 11:26:42;;;;;;;0.20;0.20;;;10.40;99.90;;;;;;5037569;28;20644;-71
2023/10/15 11:29:12;;;;;;;0.10;0.10;;;10.50;99.90;;;;;;5043925;28;20567;-72
2023/10/15 11:31:42;;;;;;;0.10;0.10;;;11.00;99.90;;;;;;5048782;28;20588;-72
2023/10/15 11:34:10;;;;;;;0.20;0.20;;;10.80;99.90;;;;;;5038398;28;20073;-72
2023/10/15 11:36:39;;;;;;;0.10;0.10;;;10.90;99.90;;;;;;5044923;28;20053;-72
2023/10/15 11:39:08;;;;;;;0.10;0.10;;;10.90;99.90;;;;;;5035382;28;20137;-73
2023/10/15 11:41:38;;;;;;;0.15;0.15;;;10.90;99.90;;;;;;5037477;28;20112;-72
2023/10/15 11:44:04;;;;;;;0.10;0.10;;;11.10;99.90;;;;;;5047610;28;20048;-72
2023/10/15 11:46:30;;;;;;;0.10;0.10;;;11.20;99.90;;;;;;5049113;28;20370;-72
2023/10/15 11:49:03;;;;;;;0.13;0.13;;;11.50;99.90;;;;;;5046275;28;20103;-73
2023/10/15 11:51:30;;;;;;;0.10;0.10;;;11.50;99.90;;;;;;5037156;28;20046;-73
2023/10/15 11:54:02;;;;;;;0.10;0.10;;;11.50;99.90;;;;;;5040761;28;20505;-73
2023/10/15 11:56:31;;;;;;;0.20;0.20;;;11.70;99.90;;;;;;5031333;28;20045;-73
2023/10/15 11:58:57;;;;;;;0.10;0.10;;;11.80;99.90;;;;;;5041152;28;20056;-72
2023/10/15 12:01:23;;;;;;;0.10;0.10;;;12.00;99.90;;;;;;5042881;28;20049;-72
2023/10/15 12:03:49;;;;;;;0.10;0.10;;;12.20;99.90;;;;;;5041578;28;20041;-72
2023/10/15 12:06:18;;;;;;;0.10;0.10;;;12.40;99.90;;;;;;5041722;28;20518;-73
2023/10/15 12:08:43;;;;;;;0.10;0.10;;;12.60;99.90;;;;;;5041268;28;20094;-72
2023/10/15 12:11:09;;;;;;;0.20;0.20;;;12.70;99.90;;;;;;5050886;28;20057;-72
2023/10/15 12:13:34;;;;;;;0.10;0.10;;;12.70;99.90;;;;;;5048110;28;20073;-72
2023/10/15 12:16:00;;;;;;;0.10;0.10;;;12.50;99.90;;;;;;5043219;28;20056;-73
2023/10/15 12:18:26;;;;;;;0.17;0.17;;;12.40;99.90;;;;;;5069315;28;20059;-72
2023/10/15 12:20:52;;;;;;;0.10;0.10;;;12.40;99.90;;;;;;5040807;28;20481;-73
2023/10/15 12:23:19;;;;;;;0.17;0.17;;;12.70;99.90;;;;;;5042623;28;20051;-73
2023/10/15 12:25:45;;;;;;;0.10;0.10;;;12.70;99.90;;;;;;5053313;28;20047;-71
2023/10/15 12:28:11;;;;;;;0.17;0.17;;;13.20;99.90;;;;;;5053602;28;20403;-70
2023/10/15 12:30:37;;;;;;;0.20;0.20;;;13.80;99.90;;;;;;5070977;28;20036;-70
2023/10/15 12:33:02;;;;;;;0.20;0.20;;;14.60;99.90;;;;;;5071518;28;20135;-71
2023/10/15 12:35:28;;;;;;;0.20;0.20;;;15.70;99.90;;;;;;5052748;28;20049;-71
2023/10/15 12:38:05;;;;;;;0.20;0.20;;;17.10;99.90;;;;;;5068668;28;20106;-71
2023/10/15 12:40:38;;;;;;;0.20;0.20;;;18.60;99.90;;;;;;5051845;28;20049;-72
2023/10/15 12:43:11;;;;;;;0.20;0.20;;;20.20;99.90;;;;;;5051886;28;20040;-71
2023/10/15 12:45:37;;;;;;;0.20;0.20;;;20.20;99.90;;;;;;5046285;28;20055;-71
2023/10/15 12:48:08;;;;;;;0.17;0.17;;;19.10;99.90;;;;;;5053235;28;20045;-72
2023/10/15 12:50:35;;;;;;;0.20;0.20;;;18.70;99.90;;;;;;5049938;28;20481;-72
2023/10/15 12:53:00;;;;;;;0.20;0.20;;;18.10;99.90;;;;;;5052752;28;20529;-71
2023/10/15 12:55:26;;;;;;;0.20;0.20;;;18.40;99.90;;;;;;5050162;28;20049;-71
2023/10/15 12:57:52;;;;;;;0.20;0.20;;;19.10;99.90;;;;;;5051383;28;20101;-72
2023/10/15 13:00:18;;;;;;;0.20;0.20;;;20.10;99.90;;;;;;5070021;28;20044;-72
2023/10/15 13:02:54;;;;;;;0.20;0.20;;;21.60;99.90;;;;;;5064676;28;20504;-72
2023/10/15 13:05:22;;;;;;;0.20;0.20;;;22.90;99.90;;;;;;5052795;28;20404;-72
2023/10/15 13:07:49;;;;;;;0.20;0.20;;;22.80;99.90;;;;;;5047420;28;20450;-72
2023/10/15 13:10:17;;;;;;;0.10;0.10;;;21.90;99.90;;;;;;5069879;28;20045;-71
2023/10/15 13:12:44;;;;;;;0.20;0.20;;;20.70;99.90;;;;;;5070631;28;20040;-71